createdAt,value
2023-02-04T00:00:23.130Z,99492.06
2023-02-04T00:02:50.616Z,99493.81
2023-02-04T00:05:19.238Z,99501.91
2023-02-04T00:07:46.593Z,99502.03
2023-02-04T00:10:14.101Z,99490.69
2023-02-04T00:12:41.435Z,99499.22
2023-02-04T00:15:10.782Z,99498.94
2023-02-04T00:17:39.396Z,99506.03
2023-02-04T00:20:07.100Z,99499.00
2023-02-04T00:22:34.516Z,99502.78
2023-02-04T00:25:01.898Z,99501.00
2023-02-04T00:27:29.316Z,99507.25
2023-02-04T00:29:57.709Z,99512.50
2023-02-04T00:32:25.394Z,99507.25
2023-02-04T00:34:54.936Z,99504.66
2023-02-04T00:37:22.467Z,99502.88
2023-02-04T00:39:49.890Z,99511.66
2023-02-04T00:42:17.387Z,99513.41
2023-02-04T00:44:44.796Z,99509.94
2023-02-04T00:47:12.205Z,99510.03
2023-02-04T00:49:39.565Z,99518.66
2023-02-04T00:52:07.047Z,99528.53
2023-02-04T00:54:34.451Z,99524.84
2023-02-04T00:57:02.008Z,99533.66
2023-02-04T00:59:29.951Z,99532.28
2023-02-04T01:01:57.338Z,99534.78
2023-02-04T01:04:25.809Z,99540.81
2023-02-04T01:06:53.149Z,99542.75
2023-02-04T01:09:20.585Z,99547.91
2023-02-04T01:11:47.927Z,99547.13
2023-02-04T01:14:15.343Z,99552.38
2023-02-04T01:16:42.782Z,99560.34
2023-02-04T01:19:10.223Z,99571.91
2023-02-04T01:21:38.775Z,99567.50
2023-02-04T01:24:07.459Z,99573.53
2023-02-04T01:26:54.846Z,99577.16
2023-02-04T01:29:22.171Z,99583.47
2023-02-04T01:31:51.192Z,99585.25
2023-02-04T01:34:18.553Z,99586.97
2023-02-04T01:36:45.880Z,99593.66
2023-02-04T01:39:13.699Z,99584.38
2023-02-04T01:41:41.400Z,99586.16
2023-02-04T01:44:08.734Z,99587.06
2023-02-04T01:46:37.378Z,99590.81
2023-02-04T01:49:05.764Z,99585.38
2023-02-04T01:51:33.306Z,99592.66
2023-02-04T01:54:01.059Z,99586.41
2023-02-04T01:56:30.556Z,99585.53
2023-02-04T01:58:58.557Z,99595.28
2023-02-04T02:01:35.927Z,99598.84
2023-02-04T02:04:03.598Z,99599.69
2023-02-04T02:06:31.320Z,99606.78
2023-02-04T02:08:58.996Z,99609.34
2023-02-04T02:11:27.617Z,99604.81
2023-02-04T02:13:55.246Z,99592.75
2023-02-04T02:16:22.879Z,99604.63
2023-02-04T02:18:50.899Z,99607.72
2023-02-04T02:21:24.199Z,99597.22
2023-02-04T02:23:54.224Z,99602.28
2023-02-04T02:26:22.394Z,99603.72
2023-02-04T02:28:50.183Z,99602.06
2023-02-04T02:31:19.106Z,99595.22
2023-02-04T02:33:47.118Z,99599.22
2023-02-04T02:36:16.917Z,99599.44
2023-02-04T02:38:44.413Z,99601.13
2023-02-04T02:41:11.888Z,99598.72
2023-02-04T02:43:39.571Z,99608.56
2023-02-04T02:46:07.466Z,99616.44
2023-02-04T02:48:34.938Z,99616.50
2023-02-04T02:51:02.363Z,99619.25
2023-02-04T02:53:29.739Z,99614.16
2023-02-04T02:55:57.483Z,99617.75
2023-02-04T02:58:34.851Z,99622.88
2023-02-04T03:01:04.691Z,99629.94
2023-02-04T03:03:36.869Z,99644.13
2023-02-04T03:06:07.907Z,99639.81
2023-02-04T03:08:35.604Z,99636.28
2023-02-04T03:11:03.204Z,99642.56
2023-02-04T03:13:31.816Z,99652.88
2023-02-04T03:15:59.346Z,99656.31
2023-02-04T03:18:27.251Z,99658.78
2023-02-04T03:20:55.358Z,99664.38
2023-02-04T03:23:22.809Z,99666.81
2023-02-04T03:25:50.237Z,99674.59
2023-02-04T03:28:18.447Z,99678.69
2023-02-04T03:30:56.102Z,99687.72
2023-02-04T03:33:31.662Z,99682.66
2023-02-04T03:35:59.374Z,99680.78
2023-02-04T03:38:26.866Z,99686.94
2023-02-04T03:40:54.215Z,99679.34
2023-02-04T03:43:21.640Z,99676.44
2023-02-04T03:45:48.990Z,99675.91
2023-02-04T03:48:16.278Z,99696.88
2023-02-04T03:50:43.786Z,99696.06
2023-02-04T03:53:11.197Z,99690.53
2023-02-04T03:55:38.667Z,99686.50
2023-02-04T03:58:06.705Z,99694.75
2023-02-04T04:00:34.254Z,99696.56
2023-02-04T04:03:01.642Z,99696.63
2023-02-04T04:05:29.110Z,99706.56
2023-02-04T04:07:56.780Z,99702.00
2023-02-04T04:10:24.200Z,99695.84
2023-02-04T04:12:51.570Z,99705.69
2023-02-04T04:15:18.983Z,99708.31
2023-02-04T04:17:46.340Z,99707.44
2023-02-04T04:20:13.962Z,99715.38
2023-02-04T04:22:41.307Z,99717.44
2023-02-04T04:25:09.153Z,99722.81
2023-02-04T04:27:36.513Z,99730.44
2023-02-04T04:30:04.833Z,99739.84
2023-02-04T04:32:32.169Z,99740.16
2023-02-04T04:34:59.590Z,99736.09
2023-02-04T04:37:27.152Z,99737.38
2023-02-04T04:39:54.515Z,99743.19
2023-02-04T04:42:22.084Z,99744.22
2023-02-04T04:44:49.496Z,99751.50
2023-02-04T04:47:16.880Z,99758.47
2023-02-04T04:49:44.257Z,99758.47
2023-02-04T04:52:11.815Z,99750.78
2023-02-04T04:54:39.233Z,99762.53
2023-02-04T04:57:06.563Z,99760.25
2023-02-04T04:59:33.916Z,99761.31
2023-02-04T05:02:01.316Z,99750.63
2023-02-04T05:04:28.705Z,99761.22
2023-02-04T05:06:56.129Z,99759.41
2023-02-04T05:09:23.529Z,99771.34
2023-02-04T05:11:50.917Z,99770.13
2023-02-04T05:14:18.326Z,99761.22
2023-02-04T05:16:45.688Z,99754.66
2023-02-04T05:19:13.192Z,99754.97
2023-02-04T05:21:40.851Z,99752.09
2023-02-04T05:24:08.243Z,99755.25
2023-02-04T05:26:35.607Z,99755.84
2023-02-04T05:29:03.086Z,99772.47
2023-02-04T05:31:30.479Z,99776.75
2023-02-04T05:33:57.979Z,99773.59
2023-02-04T05:36:25.373Z,99779.38
2023-02-04T05:38:52.948Z,99767.28
2023-02-04T05:41:20.355Z,99773.97
2023-02-04T05:43:47.674Z,99761.03
2023-02-04T05:46:15.156Z,99762.75
2023-02-04T05:48:42.650Z,99759.38
2023-02-04T05:51:10.016Z,99768.34
2023-02-04T05:53:37.431Z,99768.78
2023-02-04T05:56:04.969Z,99769.31
2023-02-04T05:58:34.962Z,99778.41
2023-02-04T06:01:03.532Z,99782.69
2023-02-04T06:03:32.673Z,99791.84
2023-02-04T06:06:00.121Z,99805.56
2023-02-04T06:08:27.531Z,99815.50
2023-02-04T06:10:54.880Z,99814.59
2023-02-04T06:13:22.245Z,99819.72
2023-02-04T06:15:49.591Z,99818.53
2023-02-04T06:18:16.923Z,99818.81
2023-02-04T06:20:44.386Z,99825.19
2023-02-04T06:23:11.692Z,99829.72
2023-02-04T06:25:39.070Z,99835.91
2023-02-04T06:28:06.454Z,99838.53
2023-02-04T06:30:34.074Z,99834.19
2023-02-04T06:33:01.558Z,99841.59
2023-02-04T06:35:29.043Z,99849.69
2023-02-04T06:37:56.424Z,99849.09
2023-02-04T06:40:23.756Z,99855.16
2023-02-04T06:42:51.144Z,99851.19
2023-02-04T06:45:18.522Z,99860.78
2023-02-04T06:47:45.947Z,99875.47
2023-02-04T06:50:18.501Z,99868.88
2023-02-04T06:52:48.965Z,99876.44
2023-02-04T06:55:17.746Z,99875.00
2023-02-04T06:57:45.134Z,99871.56
2023-02-04T07:00:13.126Z,99872.88
2023-02-04T07:02:40.586Z,99875.72
2023-02-04T07:05:08.485Z,99885.00
2023-02-04T07:07:35.919Z,99879.22
2023-02-04T07:10:03.565Z,99894.97
2023-02-04T07:12:30.941Z,99904.25
2023-02-04T07:14:58.255Z,99903.88
2023-02-04T07:17:25.641Z,99910.91
2023-02-04T07:19:53.054Z,99919.69
2023-02-04T07:22:20.409Z,99914.06
2023-02-04T07:24:47.833Z,99919.03
2023-02-04T07:27:15.192Z,99923.13
2023-02-04T07:29:42.529Z,99929.06
2023-02-04T07:32:09.873Z,99933.06
2023-02-04T07:34:37.328Z,99931.50
2023-02-04T07:37:04.907Z,99936.09
2023-02-04T07:39:32.328Z,99942.84
2023-02-04T07:41:59.701Z,99940.31
2023-02-04T07:44:33.940Z,99940.53
2023-02-04T07:47:01.321Z,99950.59
2023-02-04T07:49:29.012Z,99946.13
2023-02-04T07:51:57.846Z,99955.22
2023-02-04T07:54:25.269Z,99952.50
2023-02-04T07:56:52.684Z,99950.81
2023-02-04T07:59:20.026Z,99955.56
2023-02-04T08:01:48.095Z,99971.28
2023-02-04T08:04:15.565Z,99961.72
2023-02-04T08:06:42.976Z,99964.31
2023-02-04T08:09:10.388Z,99967.81
2023-02-04T08:11:37.807Z,99977.56
2023-02-04T08:14:05.117Z,99973.31
2023-02-04T08:16:32.642Z,99978.19
2023-02-04T08:19:00.092Z,99982.97
2023-02-04T08:21:27.429Z,99986.31
2023-02-04T08:23:54.803Z,99998.03
2023-02-04T08:26:22.226Z,99998.41
2023-02-04T08:28:49.814Z,100004.16
2023-02-04T08:31:17.259Z,100001.72
2023-02-04T08:33:44.641Z,100008.13
2023-02-04T08:36:12.008Z,100009.69
2023-02-04T08:38:40.508Z,100012.84
2023-02-04T08:41:08.113Z,100017.13
2023-02-04T08:43:36.847Z,100010.34
2023-02-04T08:46:04.475Z,100014.47
2023-02-04T08:48:31.957Z,100010.00
2023-02-04T08:50:59.331Z,100017.84
2023-02-04T08:53:26.816Z,100017.41
2023-02-04T08:55:54.220Z,100013.69
2023-02-04T08:58:21.576Z,100020.69
2023-02-04T09:00:49.007Z,100027.97
2023-02-04T09:03:16.379Z,100025.44
2023-02-04T09:05:43.756Z,100029.97
2023-02-04T09:08:11.161Z,100025.69
2023-02-04T09:10:38.576Z,100028.13
2023-02-04T09:13:05.939Z,100037.38
2023-02-04T09:15:33.450Z,100033.69
2023-02-04T09:18:15.164Z,100045.00
2023-02-04T09:20:43.297Z,100049.00
2023-02-04T09:23:12.190Z,100060.53
2023-02-04T09:25:44.193Z,100066.09
2023-02-04T09:28:12.830Z,100062.50
2023-02-04T09:30:41.408Z,100063.38
2023-02-04T09:33:09.248Z,100069.44
2023-02-04T09:35:36.841Z,100076.28
2023-02-04T09:38:04.704Z,100082.31
2023-02-04T09:40:36.034Z,100076.44
2023-02-04T09:43:04.545Z,100074.75
2023-02-04T09:45:35.394Z,100080.69
2023-02-04T09:48:09.524Z,100076.56
2023-02-04T09:50:37.579Z,100090.25
2023-02-04T09:53:06.675Z,100094.94
2023-02-04T09:55:40.048Z,100087.72
2023-02-04T09:58:17.405Z,100084.84
2023-02-04T10:00:51.079Z,100085.13
2023-02-04T10:03:22.075Z,100089.03
2023-02-04T10:05:50.361Z,100104.19
2023-02-04T10:08:20.999Z,100107.75
2023-02-04T10:10:49.543Z,100107.28
2023-02-04T10:13:44.270Z,100103.53
2023-02-04T10:16:32.451Z,100106.66
2023-02-04T10:19:04.584Z,100111.00
2023-02-04T10:21:33.473Z,100112.09
2023-02-04T10:24:02.961Z,100121.59
2023-02-04T10:26:32.139Z,100130.97
2023-02-04T10:29:03.629Z,100119.56
2023-02-04T10:31:34.590Z,100116.19
2023-02-04T10:34:10.969Z,100113.25
2023-02-04T10:36:39.195Z,100122.66
2023-02-04T10:39:21.302Z,100124.16
2023-02-04T10:41:56.095Z,100124.38
2023-02-04T10:44:30.269Z,100122.66
2023-02-04T10:47:06.153Z,100133.19
2023-02-04T10:49:33.841Z,100128.16
2023-02-04T10:52:02.008Z,100128.50
2023-02-04T10:54:35.777Z,100123.97
2023-02-04T10:57:26.560Z,100129.38
2023-02-04T10:59:59.755Z,100131.19
2023-02-04T11:02:43.406Z,100135.63
2023-02-04T11:05:17.473Z,100127.72
2023-02-04T11:07:46.616Z,100130.38
2023-02-04T11:10:25.320Z,100136.56
2023-02-04T11:12:55.380Z,100132.38
2023-02-04T11:15:45.544Z,100137.34
2023-02-04T11:18:33.154Z,100130.97
2023-02-04T11:21:00.812Z,100136.06
2023-02-04T11:23:32.288Z,100131.66
2023-02-04T11:26:19.190Z,100125.25
2023-02-04T11:28:49.512Z,100134.03
2023-02-04T11:31:22.895Z,100127.50
2023-02-04T11:34:07.056Z,100126.91
2023-02-04T11:36:34.456Z,100123.06
2023-02-04T11:39:14.151Z,100125.75
2023-02-04T11:41:46.094Z,100123.13
2023-02-04T11:44:14.613Z,100128.38
2023-02-04T11:46:42.255Z,100130.28
2023-02-04T11:49:21.599Z,100127.44
2023-02-04T11:51:49.200Z,100129.25
2023-02-04T11:54:19.136Z,100130.47
2023-02-04T11:56:47.640Z,100123.44
2023-02-04T11:59:17.548Z,100118.31
2023-02-04T12:01:44.880Z,100117.66
2023-02-04T12:04:24.741Z,100123.13
2023-02-04T12:07:03.580Z,100126.00
2023-02-04T12:09:32.520Z,100129.34
2023-02-04T12:12:02.449Z,100129.00
2023-02-04T12:14:33.543Z,100126.25
2023-02-04T12:17:01.021Z,100130.03
2023-02-04T12:19:28.788Z,100133.91
2023-02-04T12:21:56.514Z,100132.28
2023-02-04T12:24:23.912Z,100131.66
2023-02-04T12:26:51.661Z,100135.19
2023-02-04T12:29:19.038Z,100136.88
2023-02-04T12:31:46.513Z,100135.97
2023-02-04T12:34:13.975Z,100138.66
2023-02-04T12:36:41.312Z,100135.59
2023-02-04T12:39:08.698Z,100130.31
2023-02-04T12:41:36.474Z,100125.09
2023-02-04T12:44:04.454Z,100123.13
2023-02-04T12:46:31.895Z,100121.72
2023-02-04T12:48:59.283Z,100135.22
2023-02-04T12:51:26.651Z,100131.72
2023-02-04T12:53:53.951Z,100140.81
2023-02-04T12:56:24.062Z,100136.09
2023-02-04T12:58:51.378Z,100135.16
2023-02-04T13:01:18.793Z,100130.38
2023-02-04T13:03:46.185Z,100128.81
2023-02-04T13:06:13.576Z,100132.72
2023-02-04T13:08:40.914Z,100124.88
2023-02-04T13:11:08.220Z,100125.47
2023-02-04T13:13:35.592Z,100131.03
2023-02-04T13:16:02.995Z,100132.56
2023-02-04T13:18:30.647Z,100133.53
2023-02-04T13:20:57.981Z,100134.41
2023-02-04T13:23:25.341Z,100133.56
2023-02-04T13:25:52.670Z,100148.34
2023-02-04T13:28:20.035Z,100144.63
2023-02-04T13:30:47.398Z,100149.94
2023-02-04T13:33:14.714Z,100145.28
2023-02-04T13:35:42.074Z,100142.97
2023-02-04T13:38:09.459Z,100149.78
2023-02-04T13:40:37.003Z,100150.31
2023-02-04T13:43:04.297Z,100154.88
2023-02-04T13:45:32.011Z,100167.06
2023-02-04T13:47:59.606Z,100154.91
2023-02-04T13:50:27.271Z,100168.59
2023-02-04T13:52:55.310Z,100164.28
2023-02-04T13:55:22.771Z,100159.63
2023-02-04T13:57:50.157Z,100154.00
2023-02-04T14:00:17.671Z,100154.16
2023-02-04T14:02:45.121Z,100150.78
2023-02-04T14:05:12.453Z,100156.06
2023-02-04T14:07:39.768Z,100155.78
2023-02-04T14:10:07.882Z,100163.53
2023-02-04T14:12:35.284Z,100161.69
2023-02-04T14:15:02.572Z,100160.59
2023-02-04T14:17:29.976Z,100164.75
2023-02-04T14:19:57.455Z,100165.56
2023-02-04T14:22:24.862Z,100168.88
2023-02-04T14:24:52.295Z,100173.31
2023-02-04T14:27:19.601Z,100186.09
2023-02-04T14:29:46.903Z,100180.25
2023-02-04T14:32:14.252Z,100178.34
2023-02-04T14:34:41.625Z,100177.91
2023-02-04T14:37:09.034Z,100180.19
2023-02-04T14:39:36.447Z,100179.31
2023-02-04T14:42:05.265Z,100196.00
2023-02-04T14:44:33.107Z,100187.88
2023-02-04T14:47:00.470Z,100191.94
2023-02-04T14:49:27.782Z,100196.75
2023-02-04T14:51:56.885Z,100207.47
2023-02-04T14:54:24.386Z,100203.50
2023-02-04T14:56:52.554Z,100204.53
2023-02-04T14:59:19.915Z,100207.16
2023-02-04T15:01:47.279Z,100202.16
2023-02-04T15:04:14.598Z,100208.44
2023-02-04T15:06:42.061Z,100212.88
2023-02-04T15:09:09.441Z,100209.44
2023-02-04T15:11:36.820Z,100212.28
2023-02-04T15:14:04.203Z,100206.22
2023-02-04T15:16:31.593Z,100207.06
2023-02-04T15:18:59.051Z,100203.84
2023-02-04T15:21:27.318Z,100207.38
2023-02-04T15:23:54.686Z,100210.44
2023-02-04T15:26:22.480Z,100208.59
2023-02-04T15:28:49.818Z,100217.31
2023-02-04T15:31:17.299Z,100211.38
2023-02-04T15:33:44.753Z,100207.13
2023-02-04T15:36:12.103Z,100214.25
2023-02-04T15:38:39.585Z,100221.28
2023-02-04T15:41:07.002Z,100218.28
2023-02-04T15:43:34.328Z,100227.94
2023-02-04T15:46:01.844Z,100226.38
2023-02-04T15:48:29.245Z,100229.75
2023-02-04T15:50:57.794Z,100231.38
2023-02-04T15:53:25.259Z,100230.56
2023-02-04T15:55:52.624Z,100229.91
2023-02-04T15:58:19.994Z,100225.66
2023-02-04T16:00:47.379Z,100234.56
2023-02-04T16:03:14.755Z,100236.63
2023-02-04T16:05:42.076Z,100236.41
2023-02-04T16:08:09.384Z,100239.47
2023-02-04T16:10:36.729Z,100236.09
2023-02-04T16:13:04.104Z,100244.09
2023-02-04T16:15:31.982Z,100240.63
2023-02-04T16:17:59.611Z,100239.22
2023-02-04T16:20:27.072Z,100234.19
2023-02-04T16:22:54.543Z,100232.91
2023-02-04T16:25:22.876Z,100248.91
2023-02-04T16:27:50.572Z,100252.97
2023-02-04T16:30:18.084Z,100255.00
2023-02-04T16:32:45.470Z,100263.94
2023-02-04T16:35:14.296Z,100258.72
2023-02-04T16:37:41.774Z,100268.81
2023-02-04T16:40:11.171Z,100264.53
2023-02-04T16:42:38.658Z,100269.75
2023-02-04T16:45:06.406Z,100268.28
2023-02-04T16:47:33.799Z,100275.75
2023-02-04T16:50:01.227Z,100272.56
2023-02-04T16:52:29.305Z,100277.13
2023-02-04T16:54:56.676Z,100283.66
2023-02-04T16:57:24.095Z,100274.50
2023-02-04T16:59:51.620Z,100273.03
2023-02-04T17:02:18.935Z,100273.63
2023-02-04T17:04:46.368Z,100272.25
2023-02-04T17:07:13.706Z,100275.78
2023-02-04T17:09:41.071Z,100278.53
2023-02-04T17:12:08.451Z,100274.88
2023-02-04T17:14:35.919Z,100279.41
2023-02-04T17:17:03.432Z,100279.78
2023-02-04T17:19:30.809Z,100265.09
2023-02-04T17:21:59.020Z,100270.53
2023-02-04T17:24:26.453Z,100267.22
2023-02-04T17:26:53.790Z,100267.38
2023-02-04T17:29:23.117Z,100267.50
2023-02-04T17:31:52.642Z,100269.84
2023-02-04T17:34:20.136Z,100275.00
2023-02-04T17:36:47.507Z,100277.03
2023-02-04T17:39:14.825Z,100273.63
2023-02-04T17:41:42.188Z,100274.94
2023-02-04T17:44:09.935Z,100278.09
2023-02-04T17:46:37.439Z,100286.03
2023-02-04T17:49:04.917Z,100282.31
2023-02-04T17:51:32.894Z,100282.59
2023-02-04T17:54:00.435Z,100282.69
2023-02-04T17:56:27.865Z,100290.78
2023-02-04T17:58:56.100Z,100287.41
2023-02-04T18:01:23.724Z,100294.34
2023-02-04T18:03:51.584Z,100290.66
2023-02-04T18:06:27.102Z,100291.38
2023-02-04T18:09:01.394Z,100291.81
2023-02-04T18:11:32.984Z,100286.16
2023-02-04T18:14:02.293Z,100288.91
2023-02-04T18:16:34.362Z,100279.44
2023-02-04T18:19:28.537Z,100283.03
2023-02-04T18:21:56.203Z,100282.34
2023-02-04T18:24:32.953Z,100278.81
2023-02-04T18:27:04.689Z,100279.91
2023-02-04T18:29:34.591Z,100286.75
2023-02-04T18:32:36.833Z,100279.59
2023-02-04T18:35:34.244Z,100280.50
2023-02-04T18:38:01.642Z,100282.41
2023-02-04T18:40:33.512Z,100285.06
2023-02-04T18:43:28.005Z,100284.91
2023-02-04T18:45:59.831Z,100285.06
2023-02-04T18:48:27.132Z,100289.25
2023-02-04T18:50:54.986Z,100286.50
2023-02-04T18:53:29.151Z,100282.19
2023-02-04T18:56:00.605Z,100293.34
2023-02-04T18:58:34.128Z,100293.47
2023-02-04T19:01:07.090Z,100296.56
2023-02-04T19:03:42.192Z,100298.47
2023-02-04T19:06:33.965Z,100290.59
2023-02-04T19:09:10.083Z,100294.34
2023-02-04T19:11:41.664Z,100300.50
2023-02-04T19:14:40.858Z,100291.75
2023-02-04T19:17:14.404Z,100293.53
2023-02-04T19:19:52.424Z,100292.84
2023-02-04T19:22:43.696Z,100296.50
2023-02-04T19:25:26.033Z,100281.72
2023-02-04T19:28:01.932Z,100291.25
2023-02-04T19:30:29.385Z,100288.69
2023-02-04T19:32:58.331Z,100286.97
2023-02-04T19:35:28.562Z,100284.19
2023-02-04T19:38:00.418Z,100286.00
2023-02-04T19:40:27.766Z,100288.47
2023-02-04T19:43:16.546Z,100291.22
2023-02-04T19:45:44.851Z,100293.00
2023-02-04T19:48:21.076Z,100294.84
2023-02-04T19:50:51.006Z,100301.78
2023-02-04T19:53:22.874Z,100300.06
2023-02-04T19:55:54.115Z,100298.31
2023-02-04T19:58:41.854Z,100296.50
2023-02-04T20:01:16.516Z,100299.03
2023-02-04T20:03:45.649Z,100308.53
2023-02-04T20:06:33.905Z,100305.97
2023-02-04T20:09:23.447Z,100304.09
2023-02-04T20:11:57.875Z,100317.22
2023-02-04T20:14:37.640Z,100313.72
2023-02-04T20:17:18.315Z,100312.72
2023-02-04T20:19:46.154Z,100311.88
2023-02-04T20:22:23.400Z,100328.41
2023-02-04T20:25:19.733Z,100332.78
2023-02-04T20:27:55.192Z,100333.63
2023-02-04T20:30:27.913Z,100342.31
2023-02-04T20:32:58.702Z,100337.88
2023-02-04T20:35:32.332Z,100332.72
2023-02-04T20:38:07.266Z,100334.50
2023-02-04T20:40:35.938Z,100341.44
2023-02-04T20:43:13.188Z,100338.78
2023-02-04T20:45:59.627Z,100342.28
2023-02-04T20:48:34.024Z,100343.19
2023-02-04T20:51:03.938Z,100345.81
2023-02-04T20:53:54.106Z,100347.59
2023-02-04T20:56:27.551Z,100338.91
2023-02-04T20:58:58.074Z,100340.72
2023-02-04T21:01:37.174Z,100347.66
2023-02-04T21:04:30.195Z,100350.19
2023-02-04T21:07:21.887Z,100348.47
2023-02-04T21:09:49.797Z,100347.63
2023-02-04T21:12:17.154Z,100339.81
2023-02-04T21:14:44.689Z,100351.91
2023-02-04T21:17:12.018Z,100333.81
2023-02-04T21:19:39.413Z,100344.16
2023-02-04T21:22:06.741Z,100345.00
2023-02-04T21:24:34.232Z,100353.63
2023-02-04T21:27:01.818Z,100352.84
2023-02-04T21:29:29.196Z,100350.25
2023-02-04T21:31:56.629Z,100350.25
2023-02-04T21:34:24.010Z,100347.66
2023-02-04T21:36:51.323Z,100348.56
2023-02-04T21:39:20.718Z,100351.16
2023-02-04T21:42:08.040Z,100358.94
2023-02-04T21:44:38.222Z,100352.91
2023-02-04T21:47:05.922Z,100352.91
2023-02-04T21:49:33.253Z,100352.91
2023-02-04T21:52:01.321Z,100362.44
2023-02-04T21:54:28.651Z,100360.69
2023-02-04T21:56:56.064Z,100358.94
2023-02-04T21:59:25.201Z,100366.75
2023-02-04T22:01:52.617Z,100356.38
2023-02-04T22:04:20.008Z,100358.09
2023-02-04T22:06:47.448Z,100357.25
2023-02-04T22:09:15.830Z,100353.81
2023-02-04T22:11:43.291Z,100359.88
2023-02-04T22:14:10.620Z,100353.78
2023-02-04T22:16:37.993Z,100355.53
2023-02-04T22:19:05.282Z,100355.50
2023-02-04T22:21:34.758Z,100355.53
2023-02-04T22:24:02.070Z,100357.25
2023-02-04T22:26:29.418Z,100358.13
2023-02-04T22:28:56.841Z,100355.53
2023-02-04T22:31:24.288Z,100350.31
2023-02-04T22:33:51.712Z,100347.72
2023-02-04T22:36:19.134Z,100352.00
2023-02-04T22:38:46.505Z,100353.75
2023-02-04T22:41:14.194Z,100346.00
2023-02-04T22:43:41.497Z,100347.72
2023-02-04T22:46:08.801Z,100350.31
2023-02-04T22:48:36.163Z,100341.69
2023-02-04T22:51:03.713Z,100345.13
2023-02-04T22:53:31.254Z,100349.44
2023-02-04T22:55:58.580Z,100361.50
2023-02-04T22:58:25.964Z,100361.50
2023-02-04T23:00:53.565Z,100367.56
2023-02-04T23:03:20.989Z,100383.13
2023-02-04T23:05:48.367Z,100380.50
2023-02-04T23:08:17.745Z,100381.41
2023-02-04T23:10:45.982Z,100383.94
2023-02-04T23:13:13.429Z,100370.09
2023-02-04T23:15:40.792Z,100377.97
2023-02-04T23:18:08.246Z,100378.84
2023-02-04T23:20:36.494Z,100374.53
2023-02-04T23:23:04.001Z,100368.47
2023-02-04T23:25:31.833Z,100359.78
2023-02-04T23:27:59.344Z,100367.56
2023-02-04T23:30:26.767Z,100363.28
2023-02-04T23:32:54.112Z,100365.00
2023-02-04T23:35:21.550Z,100365.00
2023-02-04T23:37:48.837Z,100364.13
2023-02-04T23:40:16.313Z,100365.84
2023-02-04T23:42:43.717Z,100370.19
2023-02-04T23:45:11.160Z,100367.59
2023-02-04T23:47:38.517Z,100363.28
2023-02-04T23:50:06.121Z,100368.50
2023-02-04T23:52:33.503Z,100366.75
2023-02-04T23:55:00.831Z,100368.47
2023-02-04T23:57:28.235Z,100367.59
2023-02-04T23:59:55.591Z,100369.31
